createdAt,value
2019-02-11T00:01:44.853Z,2.73
2019-02-11T00:04:14.226Z,2.70
2019-02-11T00:06:43.401Z,2.80
2019-02-11T00:09:12.991Z,3.23
2019-02-11T00:11:42.230Z,3.40
2019-02-11T00:14:11.525Z,3.30
2019-02-11T00:16:40.860Z,3.30
2019-02-11T00:19:11.095Z,3.70
2019-02-11T00:21:40.388Z,3.60
2019-02-11T00:24:09.628Z,3.63
2019-02-11T00:26:38.894Z,3.50
2019-02-11T00:29:08.081Z,3.80
2019-02-11T00:31:38.227Z,2.43
2019-02-11T00:34:07.490Z,2.27
2019-02-11T00:36:36.626Z,2.03
2019-02-11T00:39:07.301Z,2.40
2019-02-11T00:41:36.566Z,2.87
2019-02-11T00:44:05.898Z,2.63
2019-02-11T00:46:35.191Z,2.53
2019-02-11T00:49:04.391Z,2.27
2019-02-11T00:51:33.627Z,1.80
2019-02-11T00:54:02.832Z,2.00
2019-02-11T00:56:32.006Z,2.20
2019-02-11T00:59:01.215Z,1.90
2019-02-11T01:01:30.339Z,2.00
2019-02-11T01:03:59.637Z,1.67
2019-02-11T01:06:28.893Z,1.83
2019-02-11T01:08:58.074Z,1.80
2019-02-11T01:11:27.229Z,1.73
2019-02-11T01:13:56.419Z,1.40
2019-02-11T01:16:25.615Z,1.30
2019-02-11T01:18:54.793Z,1.10
2019-02-11T01:21:24.041Z,1.00
2019-02-11T01:23:53.151Z,0.93
2019-02-11T01:26:22.294Z,0.87
2019-02-11T01:28:51.399Z,0.73
2019-02-11T01:31:20.507Z,0.90
2019-02-11T01:33:49.699Z,0.90
2019-02-11T01:36:18.956Z,0.77
2019-02-11T01:38:48.208Z,0.70
2019-02-11T01:41:17.533Z,0.90
2019-02-11T01:43:47.193Z,0.70
2019-02-11T01:46:16.941Z,0.90
2019-02-11T01:48:46.330Z,0.93
2019-02-11T01:51:15.901Z,0.90
2019-02-11T01:53:45.199Z,0.70
2019-02-11T01:56:14.488Z,0.80
2019-02-11T01:58:44.010Z,0.90
2019-02-11T02:01:13.127Z,1.00
2019-02-11T02:03:42.268Z,0.90
2019-02-11T02:06:11.399Z,0.87
2019-02-11T02:08:40.875Z,1.10
2019-02-11T02:11:10.230Z,0.90
2019-02-11T02:13:44.807Z,0.90
2019-02-11T02:16:11.438Z,0.83
2019-02-11T02:18:40.668Z,0.90
2019-02-11T02:21:09.818Z,1.00
2019-02-11T02:23:39.272Z,1.10
2019-02-11T02:26:08.682Z,1.10
2019-02-11T02:28:37.793Z,0.97
2019-02-11T02:31:06.948Z,1.27
2019-02-11T02:33:36.072Z,1.50
2019-02-11T02:36:06.214Z,1.53
2019-02-11T02:38:35.392Z,1.73
2019-02-11T02:41:04.635Z,1.50
2019-02-11T02:43:33.847Z,1.73
2019-02-11T02:46:03.286Z,1.40
2019-02-11T02:48:32.489Z,1.80
2019-02-11T02:51:01.671Z,1.90
2019-02-11T02:53:31.251Z,1.83
2019-02-11T02:56:00.591Z,1.90
2019-02-11T02:58:29.901Z,2.67
2019-02-11T03:00:59.051Z,2.50
2019-02-11T03:03:28.386Z,2.70
2019-02-11T03:05:57.552Z,2.60
2019-02-11T03:08:26.812Z,3.10
2019-02-11T03:10:56.078Z,2.90
2019-02-11T03:13:25.229Z,3.70
2019-02-11T03:15:54.365Z,3.77
2019-02-11T03:18:23.516Z,4.87
2019-02-11T03:20:52.689Z,5.20
2019-02-11T03:23:21.810Z,7.33
2019-02-11T03:25:51.014Z,7.87
2019-02-11T03:28:20.175Z,8.40
2019-02-11T03:30:49.313Z,9.83
2019-02-11T03:33:18.652Z,9.50
2019-02-11T03:35:47.892Z,8.77
2019-02-11T03:38:17.027Z,7.63
2019-02-11T03:40:46.190Z,6.87
2019-02-11T03:43:15.589Z,5.97
2019-02-11T03:45:44.791Z,6.30
2019-02-11T03:48:14.195Z,4.63
2019-02-11T03:50:43.434Z,4.03
2019-02-11T03:53:12.586Z,4.23
2019-02-11T03:55:41.746Z,3.83
2019-02-11T03:58:11.406Z,3.10
2019-02-11T04:00:40.535Z,3.57
2019-02-11T04:03:09.637Z,3.20
2019-02-11T04:05:38.879Z,3.80
2019-02-11T04:08:08.694Z,2.80
2019-02-11T04:10:38.361Z,2.43
2019-02-11T04:13:07.670Z,3.40
2019-02-11T04:15:36.917Z,2.93
2019-02-11T04:18:06.035Z,2.77
2019-02-11T04:20:35.270Z,2.60
2019-02-11T04:23:04.415Z,3.60
2019-02-11T04:25:33.552Z,3.77
2019-02-11T04:28:02.723Z,3.37
2019-02-11T04:30:31.948Z,3.60
2019-02-11T04:33:01.284Z,3.50
2019-02-11T04:35:30.435Z,3.63
2019-02-11T04:37:59.574Z,3.70
2019-02-11T04:40:28.743Z,3.40
2019-02-11T04:42:57.979Z,3.40
2019-02-11T04:45:27.102Z,3.60
2019-02-11T04:47:56.271Z,3.33
2019-02-11T04:50:25.404Z,3.30
2019-02-11T04:52:54.538Z,3.93
2019-02-11T04:55:23.825Z,3.50
2019-02-11T04:57:53.012Z,3.30
2019-02-11T05:00:22.213Z,3.13
2019-02-11T05:02:51.339Z,3.43
2019-02-11T05:05:20.633Z,3.07
2019-02-11T05:07:49.847Z,2.73
2019-02-11T05:10:19.021Z,2.80
2019-02-11T05:12:48.168Z,3.00
2019-02-11T05:15:17.317Z,2.80
2019-02-11T05:17:47.916Z,2.60
2019-02-11T05:20:17.230Z,2.70
2019-02-11T05:22:46.431Z,2.90
2019-02-11T05:25:15.581Z,2.87
2019-02-11T05:27:44.840Z,3.03
2019-02-11T05:30:14.124Z,2.50
2019-02-11T05:32:43.301Z,2.20
2019-02-11T05:35:12.623Z,2.83
2019-02-11T05:37:41.759Z,2.40
2019-02-11T05:40:11.008Z,2.10
2019-02-11T05:42:40.572Z,1.87
2019-02-11T05:45:09.894Z,2.00
2019-02-11T05:47:39.231Z,2.27
2019-02-11T05:50:08.745Z,2.00
2019-02-11T05:52:37.884Z,1.80
2019-02-11T05:55:07.217Z,2.03
2019-02-11T05:57:36.467Z,1.77
2019-02-11T06:00:06.127Z,1.80
2019-02-11T06:02:35.333Z,1.73
2019-02-11T06:05:04.911Z,1.87
2019-02-11T06:07:34.049Z,1.70
2019-02-11T06:10:03.375Z,1.87
2019-02-11T06:12:33.191Z,1.70
2019-02-11T06:15:04.476Z,1.40
2019-02-11T06:17:33.340Z,1.30
2019-02-11T06:20:02.457Z,1.60
2019-02-11T06:22:31.706Z,1.50
2019-02-11T06:25:00.829Z,1.70
2019-02-11T06:27:30.179Z,1.60
2019-02-11T06:29:59.382Z,1.30
2019-02-11T06:32:28.567Z,1.20
2019-02-11T06:34:57.842Z,1.60
2019-02-11T06:37:27.121Z,1.30
2019-02-11T06:39:56.313Z,1.50
2019-02-11T06:42:25.469Z,1.77
2019-02-11T06:44:54.694Z,1.60
2019-02-11T06:47:23.931Z,1.30
2019-02-11T06:49:53.107Z,1.60
2019-02-11T06:52:23.733Z,1.40
2019-02-11T06:54:52.914Z,1.67
2019-02-11T06:57:21.993Z,1.57
2019-02-11T06:59:51.126Z,1.60
2019-02-11T07:02:20.223Z,1.43
2019-02-11T07:04:49.812Z,2.03
2019-02-11T07:07:19.480Z,2.00
2019-02-11T07:09:49.159Z,2.50
2019-02-11T07:12:18.874Z,2.43
2019-02-11T07:14:48.081Z,1.53
2019-02-11T07:17:17.238Z,1.70
2019-02-11T07:19:47.784Z,1.63
2019-02-11T07:22:17.493Z,2.00
2019-02-11T07:24:46.730Z,1.30
2019-02-11T07:27:15.932Z,1.90
2019-02-11T07:29:45.026Z,1.93
2019-02-11T07:32:14.151Z,1.90
2019-02-11T07:34:43.302Z,2.73
2019-02-11T07:37:12.462Z,2.80
2019-02-11T07:39:41.642Z,2.70
2019-02-11T07:42:17.467Z,1.73
2019-02-11T07:44:51.007Z,1.60
2019-02-11T07:47:20.176Z,1.87
2019-02-11T07:49:49.395Z,1.73
2019-02-11T07:52:26.454Z,2.10
2019-02-11T07:54:49.399Z,2.00
2019-02-11T07:57:18.518Z,1.60
2019-02-11T07:59:47.742Z,1.57
2019-02-11T08:02:16.920Z,1.83
2019-02-11T08:04:46.062Z,3.20
2019-02-11T08:07:15.649Z,1.93
2019-02-11T08:09:44.942Z,1.80
2019-02-11T08:12:14.111Z,1.97
2019-02-11T08:14:44.222Z,1.77
2019-02-11T08:17:13.777Z,1.77
2019-02-11T08:19:43.391Z,2.47
2019-02-11T08:22:12.636Z,2.40
2019-02-11T08:24:41.850Z,2.07
2019-02-11T08:27:10.957Z,2.10
2019-02-11T08:29:40.082Z,2.00
2019-02-11T08:32:09.227Z,1.77
2019-02-11T08:34:38.455Z,1.87
2019-02-11T08:37:07.567Z,1.50
2019-02-11T08:39:36.730Z,1.80
2019-02-11T08:42:06.030Z,2.13
2019-02-11T08:44:35.185Z,3.13
2019-02-11T08:47:04.384Z,3.47
2019-02-11T08:49:33.560Z,1.23
2019-02-11T08:52:02.943Z,1.57
2019-02-11T08:54:32.063Z,1.57
2019-02-11T08:57:01.203Z,1.60
2019-02-11T08:59:30.326Z,1.77
2019-02-11T09:01:59.950Z,1.20
2019-02-11T09:04:31.367Z,1.40
2019-02-11T09:07:00.619Z,1.20
2019-02-11T09:09:29.884Z,1.60
2019-02-11T09:11:59.240Z,3.90
2019-02-11T09:14:28.397Z,5.57
2019-02-11T09:16:57.554Z,4.10
2019-02-11T09:19:27.172Z,1.30
2019-02-11T09:21:57.217Z,1.27
2019-02-11T09:24:26.459Z,1.17
2019-02-11T09:26:55.640Z,1.20
2019-02-11T09:29:24.809Z,1.30
2019-02-11T09:31:54.545Z,0.90
2019-02-11T09:34:23.884Z,0.83
2019-02-11T09:36:53.486Z,1.10
2019-02-11T09:39:23.362Z,0.80
2019-02-11T09:41:53.051Z,1.20
2019-02-11T09:44:29.750Z,0.77
2019-02-11T09:46:56.535Z,1.00
2019-02-11T09:49:26.346Z,2.30
2019-02-11T09:51:56.052Z,0.77
2019-02-11T09:54:25.802Z,0.73
2019-02-11T09:56:55.615Z,1.07
2019-02-11T09:59:25.358Z,0.70
2019-02-11T10:01:55.068Z,0.70
2019-02-11T10:04:24.362Z,1.07
2019-02-11T10:06:53.584Z,1.47
2019-02-11T10:09:22.804Z,1.10
2019-02-11T10:11:51.918Z,1.70
2019-02-11T10:14:21.030Z,0.90
2019-02-11T10:16:50.314Z,0.90
2019-02-11T10:19:19.523Z,1.00
2019-02-11T10:21:49.221Z,5.10
2019-02-11T10:24:18.914Z,4.47
2019-02-11T10:26:48.151Z,1.60
2019-02-11T10:29:20.255Z,1.10
2019-02-11T10:31:50.050Z,1.00
2019-02-11T10:34:19.864Z,1.07
2019-02-11T10:36:49.316Z,1.00
2019-02-11T10:39:19.918Z,1.10
2019-02-11T10:41:50.503Z,1.50
2019-02-11T10:44:20.208Z,1.10
2019-02-11T10:46:49.901Z,1.03
2019-02-11T10:49:19.192Z,1.30
2019-02-11T10:51:48.541Z,1.13
2019-02-11T10:54:17.698Z,1.10
2019-02-11T10:56:46.922Z,1.10
2019-02-11T10:59:16.152Z,1.03
2019-02-11T11:01:45.562Z,0.80
2019-02-11T11:04:14.827Z,1.00
2019-02-11T11:06:44.008Z,1.00
2019-02-11T11:09:17.354Z,1.10
2019-02-11T11:11:47.272Z,1.20
2019-02-11T11:14:16.563Z,1.00
2019-02-11T11:16:45.774Z,1.00
2019-02-11T11:19:14.968Z,1.10
2019-02-11T11:21:44.198Z,1.47
2019-02-11T11:24:13.430Z,1.40
2019-02-11T11:26:42.589Z,1.47
2019-02-11T11:29:11.761Z,1.20
2019-02-11T11:31:40.975Z,1.53
2019-02-11T11:34:10.206Z,1.87
2019-02-11T11:36:39.415Z,6.10
2019-02-11T11:39:19.271Z,2.30
2019-02-11T11:41:48.508Z,1.40
2019-02-11T11:44:18.089Z,0.97
2019-02-11T11:46:47.437Z,1.77
2019-02-11T11:49:16.956Z,0.93
2019-02-11T11:51:46.263Z,0.83
2019-02-11T11:54:15.613Z,1.47
2019-02-11T11:56:44.766Z,1.20
2019-02-11T11:59:14.288Z,1.10
2019-02-11T12:01:43.552Z,1.03
2019-02-11T12:04:12.672Z,0.93
2019-02-11T12:06:41.947Z,1.27
2019-02-11T12:09:11.724Z,1.77
2019-02-11T12:11:40.992Z,1.80
2019-02-11T12:14:10.190Z,2.00
2019-02-11T12:16:55.485Z,1.40
2019-02-11T12:19:10.867Z,1.30
2019-02-11T12:21:40.224Z,1.30
2019-02-11T12:24:09.436Z,1.33
2019-02-11T12:26:38.694Z,1.90
2019-02-11T12:29:07.970Z,1.50
2019-02-11T12:31:37.200Z,1.37
2019-02-11T12:34:06.520Z,1.23
2019-02-11T12:36:36.096Z,1.23
2019-02-11T12:39:06.177Z,1.30
2019-02-11T12:41:36.042Z,1.60
2019-02-11T12:44:05.779Z,1.40
2019-02-11T12:46:35.522Z,1.87
2019-02-11T12:49:05.223Z,1.40
2019-02-11T12:51:36.127Z,1.53
2019-02-11T12:54:05.887Z,1.13
2019-02-11T12:56:35.635Z,1.23
2019-02-11T12:59:05.015Z,1.30
2019-02-11T13:01:34.314Z,1.33
2019-02-11T13:04:03.549Z,1.30
2019-02-11T13:06:32.918Z,1.40
2019-02-11T13:09:02.223Z,1.00
2019-02-11T13:11:33.769Z,1.47
2019-02-11T13:14:03.142Z,1.63
2019-02-11T13:16:32.289Z,1.33
2019-02-11T13:19:01.892Z,1.90
2019-02-11T13:21:32.406Z,2.40
2019-02-11T13:24:01.743Z,1.40
2019-02-11T13:26:31.329Z,1.20
2019-02-11T13:29:01.642Z,1.43
2019-02-11T13:31:31.124Z,1.73
2019-02-11T13:34:00.310Z,1.20
2019-02-11T13:36:30.068Z,1.13
2019-02-11T13:38:59.982Z,2.60
2019-02-11T13:41:29.745Z,1.40
2019-02-11T13:43:59.005Z,1.53
2019-02-11T13:46:28.613Z,1.53
2019-02-11T13:48:57.932Z,1.90
2019-02-11T13:51:27.042Z,1.70
2019-02-11T13:53:56.196Z,1.90
2019-02-11T13:56:25.515Z,1.63
2019-02-11T13:58:54.705Z,1.40
2019-02-11T14:01:23.927Z,1.43
2019-02-11T14:03:53.342Z,1.50
2019-02-11T14:06:22.641Z,2.30
2019-02-11T14:08:52.263Z,2.30
2019-02-11T14:11:21.961Z,1.57
2019-02-11T14:14:02.884Z,1.20
2019-02-11T14:16:22.872Z,1.57
2019-02-11T14:18:52.841Z,1.67
2019-02-11T14:21:22.558Z,1.10
2019-02-11T14:23:52.123Z,1.40
2019-02-11T14:26:21.771Z,1.60
2019-02-11T14:28:51.092Z,1.10
2019-02-11T14:31:20.445Z,1.10
2019-02-11T14:33:49.940Z,1.10
2019-02-11T14:36:19.246Z,1.33
2019-02-11T14:38:48.620Z,1.50
2019-02-11T14:41:18.113Z,1.30
2019-02-11T14:43:47.400Z,1.27
2019-02-11T14:46:17.093Z,1.30
2019-02-11T14:48:46.480Z,1.30
2019-02-11T14:51:15.790Z,1.20
2019-02-11T14:53:45.165Z,1.50
2019-02-11T14:56:14.463Z,1.00
2019-02-11T14:58:43.669Z,1.10
2019-02-11T15:01:12.789Z,1.13
2019-02-11T15:03:42.957Z,1.10
2019-02-11T15:06:12.569Z,1.50
2019-02-11T15:08:42.314Z,1.30
2019-02-11T15:11:11.978Z,2.07
2019-02-11T15:13:41.798Z,1.50
2019-02-11T15:16:11.458Z,1.30
2019-02-11T15:18:41.334Z,1.80
2019-02-11T15:21:12.793Z,1.50
2019-02-11T15:23:41.984Z,1.53
2019-02-11T15:26:11.623Z,1.63
2019-02-11T15:28:41.403Z,1.27
2019-02-11T15:31:10.712Z,1.37
2019-02-11T15:33:39.909Z,1.37
2019-02-11T15:36:09.050Z,1.23
2019-02-11T15:38:38.515Z,1.23
2019-02-11T15:41:08.766Z,1.13
2019-02-11T15:43:37.916Z,1.40
2019-02-11T15:46:07.263Z,1.30
2019-02-11T15:48:42.993Z,1.40
2019-02-11T15:51:07.430Z,1.20
2019-02-11T15:53:37.700Z,1.30
2019-02-11T15:56:08.163Z,1.00
2019-02-11T15:58:37.478Z,1.10
2019-02-11T16:01:06.777Z,1.10
2019-02-11T16:03:35.924Z,1.53
2019-02-11T16:06:10.277Z,1.27
2019-02-11T16:08:35.937Z,1.37
2019-02-11T16:11:05.159Z,1.50
2019-02-11T16:13:34.394Z,1.13
2019-02-11T16:16:04.715Z,1.10
2019-02-11T16:18:33.965Z,1.47
2019-02-11T16:21:03.058Z,1.30
2019-02-11T16:23:32.167Z,1.40
2019-02-11T16:26:01.765Z,1.20
2019-02-11T16:28:31.055Z,1.37
2019-02-11T16:31:06.139Z,1.43
2019-02-11T16:33:35.312Z,0.87
2019-02-11T16:36:12.272Z,1.50
2019-02-11T16:38:41.889Z,1.00
2019-02-11T16:41:11.632Z,0.97
2019-02-11T16:43:40.844Z,1.60
2019-02-11T16:46:10.000Z,1.20
2019-02-11T16:48:39.143Z,1.20
2019-02-11T16:51:08.244Z,1.53
2019-02-11T16:53:37.362Z,1.30
2019-02-11T16:56:06.571Z,1.13
2019-02-11T16:58:35.720Z,1.00
2019-02-11T17:01:04.901Z,1.30
2019-02-11T17:03:34.062Z,0.90
2019-02-11T17:06:03.237Z,1.00
2019-02-11T17:08:33.242Z,1.20
2019-02-11T17:11:02.447Z,1.10
2019-02-11T17:13:31.922Z,1.50
2019-02-11T17:16:01.115Z,1.13
2019-02-11T17:18:30.881Z,1.33
2019-02-11T17:21:00.513Z,1.00
2019-02-11T17:23:29.907Z,0.97
2019-02-11T17:26:00.262Z,1.03
2019-02-11T17:28:29.589Z,1.20
2019-02-11T17:30:59.019Z,1.30
2019-02-11T17:33:28.271Z,0.90
2019-02-11T17:35:57.833Z,1.17
2019-02-11T17:38:26.986Z,1.10
2019-02-11T17:40:56.163Z,1.20
2019-02-11T17:43:25.294Z,2.07
2019-02-11T17:45:54.489Z,1.40
2019-02-11T17:48:24.696Z,1.60
2019-02-11T17:50:53.882Z,1.30
2019-02-11T17:53:23.084Z,1.17
2019-02-11T17:55:52.257Z,1.27
2019-02-11T17:58:21.398Z,1.07
2019-02-11T18:00:57.499Z,1.60
2019-02-11T18:03:26.638Z,1.20
2019-02-11T18:05:55.765Z,1.20
2019-02-11T18:08:24.939Z,1.13
2019-02-11T18:10:54.161Z,1.20
2019-02-11T18:13:23.385Z,1.20
2019-02-11T18:15:53.021Z,1.10
2019-02-11T18:18:22.678Z,1.00
2019-02-11T18:20:52.750Z,1.37
2019-02-11T18:23:23.199Z,1.10
2019-02-11T18:25:52.896Z,1.10
2019-02-11T18:28:24.003Z,1.10
2019-02-11T18:30:53.316Z,1.03
2019-02-11T18:33:23.152Z,1.00
2019-02-11T18:35:52.375Z,1.13
2019-02-11T18:38:21.485Z,0.93
2019-02-11T18:40:50.674Z,0.80
2019-02-11T18:43:19.829Z,1.10
2019-02-11T18:45:48.988Z,1.00
2019-02-11T18:48:18.199Z,1.03
2019-02-11T18:50:47.407Z,1.70
2019-02-11T18:53:16.752Z,2.93
2019-02-11T18:55:45.976Z,1.97
2019-02-11T18:58:15.252Z,2.43
2019-02-11T19:00:44.432Z,1.30
2019-02-11T19:03:13.645Z,1.27
2019-02-11T19:05:42.781Z,1.03
2019-02-11T19:08:12.023Z,1.33
2019-02-11T19:10:42.058Z,1.40
2019-02-11T19:13:11.177Z,1.00
2019-02-11T19:15:41.361Z,1.13
2019-02-11T19:18:10.719Z,1.27
2019-02-11T19:20:39.986Z,1.00
2019-02-11T19:23:09.326Z,1.60
2019-02-11T19:25:38.551Z,1.10
2019-02-11T19:28:07.827Z,1.00
2019-02-11T19:30:37.045Z,1.03
2019-02-11T19:33:06.134Z,1.10
2019-02-11T19:35:35.309Z,0.87
2019-02-11T19:38:04.471Z,1.17
2019-02-11T19:40:33.672Z,0.90
2019-02-11T19:43:02.925Z,0.87
2019-02-11T19:45:32.146Z,1.00
2019-02-11T19:48:01.334Z,0.87
2019-02-11T19:50:30.535Z,0.80
2019-02-11T19:52:59.712Z,0.90
2019-02-11T19:55:28.865Z,1.00
2019-02-11T19:57:57.988Z,1.10
2019-02-11T20:00:27.183Z,1.10
2019-02-11T20:02:56.411Z,0.90
2019-02-11T20:05:26.751Z,0.80
2019-02-11T20:07:56.020Z,0.93
2019-02-11T20:10:25.381Z,1.20
2019-02-11T20:12:54.668Z,0.87
2019-02-11T20:15:25.150Z,1.10
2019-02-11T20:17:54.383Z,1.00
2019-02-11T20:20:23.851Z,1.03
2019-02-11T20:22:53.068Z,1.03
2019-02-11T20:25:22.266Z,1.00
2019-02-11T20:27:51.888Z,1.40
2019-02-11T20:30:22.439Z,1.00
2019-02-11T20:32:51.640Z,1.10
2019-02-11T20:35:20.938Z,1.03
2019-02-11T20:37:50.143Z,1.20
2019-02-11T20:40:19.904Z,0.90
2019-02-11T20:42:49.128Z,1.80
2019-02-11T20:45:19.479Z,1.17
2019-02-11T20:47:48.738Z,1.07
2019-02-11T20:50:17.941Z,1.10
2019-02-11T20:52:47.135Z,1.10
2019-02-11T20:55:16.324Z,1.00
2019-02-11T20:57:45.589Z,1.13
2019-02-11T21:00:16.794Z,1.30
2019-02-11T21:02:45.998Z,1.00
2019-02-11T21:05:15.295Z,1.00
2019-02-11T21:07:44.569Z,1.03
2019-02-11T21:10:14.074Z,1.33
2019-02-11T21:12:43.255Z,1.50
2019-02-11T21:15:13.741Z,1.20
2019-02-11T21:17:43.180Z,0.83
2019-02-11T21:20:17.696Z,1.00
2019-02-11T21:22:45.277Z,1.10
2019-02-11T21:25:15.384Z,0.97
2019-02-11T21:27:45.061Z,1.20
2019-02-11T21:30:14.405Z,1.43
2019-02-11T21:32:44.080Z,1.40
2019-02-11T21:35:13.382Z,1.27
2019-02-11T21:37:43.867Z,1.73
2019-02-11T21:40:13.609Z,1.20
2019-02-11T21:42:44.589Z,1.20
2019-02-11T21:45:13.723Z,1.33
2019-02-11T21:47:42.836Z,1.27
2019-02-11T21:50:12.741Z,1.10
2019-02-11T21:52:41.928Z,1.30
2019-02-11T21:55:11.570Z,1.10
2019-02-11T21:57:40.859Z,1.00
2019-02-11T22:00:11.466Z,1.40
2019-02-11T22:02:40.691Z,1.20
2019-02-11T22:05:09.879Z,8.97
2019-02-11T22:07:39.078Z,5.60
2019-02-11T22:10:08.799Z,1.50
2019-02-11T22:12:38.336Z,1.43
2019-02-11T22:15:07.858Z,1.40
2019-02-11T22:17:36.982Z,1.10
2019-02-11T22:20:07.105Z,1.40
2019-02-11T22:22:36.263Z,1.07
2019-02-11T22:25:05.549Z,1.20
2019-02-11T22:27:34.797Z,1.30
2019-02-11T22:30:04.783Z,1.20
2019-02-11T22:32:33.943Z,1.63
2019-02-11T22:35:03.069Z,1.40
2019-02-11T22:37:32.205Z,1.20
2019-02-11T22:40:01.409Z,1.10
2019-02-11T22:42:30.749Z,1.40
2019-02-11T22:45:00.221Z,1.70
2019-02-11T22:47:29.360Z,1.43
2019-02-11T22:49:58.475Z,2.53
2019-02-11T22:52:27.867Z,3.60
2019-02-11T22:54:57.039Z,2.07
2019-02-11T22:57:26.159Z,1.47
2019-02-11T22:59:55.522Z,1.10
2019-02-11T23:02:24.802Z,1.90
2019-02-11T23:04:53.893Z,1.40
2019-02-11T23:07:23.428Z,1.33
2019-02-11T23:09:52.643Z,1.30
2019-02-11T23:12:22.117Z,1.77
2019-02-11T23:14:51.338Z,1.00
2019-02-11T23:17:20.538Z,1.20
2019-02-11T23:19:49.743Z,1.53
2019-02-11T23:22:18.867Z,1.37
2019-02-11T23:24:48.024Z,1.20
2019-02-11T23:27:17.149Z,1.60
2019-02-11T23:29:46.328Z,1.27
2019-02-11T23:32:15.528Z,1.40
2019-02-11T23:34:44.666Z,1.47
2019-02-11T23:37:13.797Z,1.20
2019-02-11T23:39:43.056Z,1.33
2019-02-11T23:42:12.251Z,1.10
2019-02-11T23:44:42.535Z,1.43
2019-02-11T23:47:11.651Z,1.47
2019-02-11T23:49:40.822Z,4.13
2019-02-11T23:52:10.005Z,3.60
2019-02-11T23:54:39.131Z,2.57
2019-02-11T23:57:08.230Z,1.47
2019-02-11T23:59:37.463Z,0.97
